Time;durP1;ratioP1;P1;durP2;ratioP2;P2;SDS_P1;SDS_P2;PMS_P1;PMS_P2;Temp;Humidity;BMP_temperature;BMP_pressure;BME280_temperature;BME280_humidity;BME280_pressure;Samples;Min_cycle;Max_cycle;Signal;HPM_P1;HPM_P2
2022/11/24 00:01:33;;;;;;;14.18;7.15;;;8.60;99.90;;;;;;5033829;28;20036;-70
2022/11/24 00:04:02;;;;;;;14.88;6.93;;;8.50;99.90;;;;;;5050083;28;20060;-70
2022/11/24 00:06:29;;;;;;;13.13;6.63;;;8.50;99.90;;;;;;5034422;28;20076;-70
2022/11/24 00:08:55;;;;;;;17.10;7.07;;;8.40;99.90;;;;;;5039221;28;20123;-70
2022/11/24 00:11:24;;;;;;;13.93;6.68;;;8.40;99.90;;;;;;5051076;28;20025;-70
2022/11/24 00:13:49;;;;;;;13.27;6.80;;;8.40;99.90;;;;;;5051209;28;20076;-70
2022/11/24 00:16:19;;;;;;;12.10;7.65;;;8.30;99.90;;;;;;5033588;28;20076;-70
2022/11/24 00:18:47;;;;;;;13.85;6.38;;;8.30;99.90;;;;;;5035123;28;20397;-70
2022/11/24 00:21:14;;;;;;;17.80;6.57;;;8.20;99.90;;;;;;5051718;28;20045;-70
2022/11/24 00:23:39;;;;;;;12.52;6.65;;;8.30;99.90;;;;;;5057544;28;20040;-70
2022/11/24 00:26:09;;;;;;;14.88;6.35;;;8.30;99.90;;;;;;5071926;28;20508;-70
2022/11/24 00:28:36;;;;;;;14.18;6.15;;;8.20;99.90;;;;;;5052738;28;20033;-70
2022/11/24 00:31:02;;;;;;;15.23;6.50;;;8.20;99.90;;;;;;5054775;28;20045;-70
2022/11/24 00:33:28;;;;;;;17.83;6.40;;;8.20;99.90;;;;;;5054782;28;20044;-70
2022/11/24 00:35:58;;;;;;;19.83;5.97;;;8.10;99.90;;;;;;5071624;28;20044;-70
2022/11/24 00:38:24;;;;;;;16.05;6.18;;;8.10;99.90;;;;;;5041182;28;20063;-70
2022/11/24 00:40:50;;;;;;;12.88;6.00;;;8.10;99.90;;;;;;5050830;28;20492;-70
2022/11/24 00:43:17;;;;;;;15.63;5.82;;;8.20;99.90;;;;;;5071360;28;20036;-70
2022/11/24 00:45:42;;;;;;;15.40;5.68;;;8.10;99.90;;;;;;5054628;28;20063;-70
2022/11/24 00:48:08;;;;;;;13.68;4.80;;;8.10;99.90;;;;;;5049794;28;20029;-70
2022/11/24 00:50:34;;;;;;;16.55;5.72;;;8.10;99.90;;;;;;5054702;28;20033;-70
2022/11/24 00:53:00;;;;;;;15.15;5.90;;;8.10;99.90;;;;;;5055516;28;20041;-70
2022/11/24 00:55:25;;;;;;;16.20;5.70;;;8.10;99.90;;;;;;5055136;28;20094;-70
2022/11/24 00:57:51;;;;;;;14.73;5.68;;;8.00;99.90;;;;;;5038560;28;20040;-70
2022/11/24 01:00:17;;;;;;;16.27;5.75;;;7.90;99.90;;;;;;5038658;28;20087;-70
2022/11/24 01:02:43;;;;;;;16.20;4.95;;;8.00;99.90;;;;;;5037277;28;20048;-70
2022/11/24 01:05:09;;;;;;;14.88;5.43;;;7.90;99.90;;;;;;5034990;28;20037;-70
2022/11/24 01:07:35;;;;;;;13.20;4.70;;;7.90;99.90;;;;;;5039105;28;20400;-70
2022/11/24 01:10:01;;;;;;;19.98;5.65;;;8.00;99.90;;;;;;5057433;28;20040;-70
2022/11/24 01:12:27;;;;;;;13.38;4.78;;;7.90;99.90;;;;;;5074913;28;20072;-70
2022/11/24 01:14:53;;;;;;;12.38;4.70;;;8.00;99.90;;;;;;5074718;28;20055;-70
2022/11/24 01:17:18;;;;;;;14.73;4.82;;;7.90;99.90;;;;;;5074728;28;20040;-70
2022/11/24 01:19:46;;;;;;;15.40;4.85;;;8.00;99.90;;;;;;5039703;28;20068;-70
2022/11/24 01:22:12;;;;;;;14.98;4.72;;;8.00;99.90;;;;;;5058730;28;20119;-70
2022/11/24 01:24:38;;;;;;;14.88;4.57;;;7.90;99.90;;;;;;5074544;28;20377;-70
2022/11/24 01:27:03;;;;;;;16.90;4.95;;;7.90;99.90;;;;;;5074479;28;20174;-70
2022/11/24 01:29:29;;;;;;;14.13;4.75;;;7.90;99.90;;;;;;5071300;28;20041;-70
2022/11/24 01:31:54;;;;;;;17.30;4.63;;;8.00;99.90;;;;;;5074677;28;20499;-70
2022/11/24 01:34:20;;;;;;;18.40;4.57;;;8.00;99.90;;;;;;5059819;28;20039;-70
2022/11/24 01:36:46;;;;;;;15.63;4.03;;;7.90;99.90;;;;;;5054246;28;20037;-70
2022/11/24 01:39:12;;;;;;;13.35;4.28;;;7.90;99.90;;;;;;5037772;28;20044;-70
2022/11/24 01:41:38;;;;;;;14.55;3.90;;;7.90;99.90;;;;;;5037827;28;20040;-70
2022/11/24 01:44:25;;;;;;;14.52;4.82;;;7.90;99.90;;;;;;5064843;28;20040;-70
2022/11/24 01:46:59;;;;;;;15.15;4.22;;;7.90;99.90;;;;;;5074217;28;20036;-70
2022/11/24 01:49:33;;;;;;;15.80;3.83;;;7.80;99.90;;;;;;5053240;28;20068;-70
2022/11/24 01:52:21;;;;;;;13.18;4.13;;;7.90;99.90;;;;;;5037517;28;20099;-70
2022/11/24 01:55:17;;;;;;;18.00;4.18;;;7.90;99.90;;;;;;5031286;28;20033;-70
2022/11/24 01:58:09;;;;;;;16.25;4.30;;;7.90;99.90;;;;;;5032251;28;20053;-70
2022/11/24 02:00:37;;;;;;;11.32;4.32;;;7.90;99.90;;;;;;5072123;28;20124;-70
2022/11/24 02:03:02;;;;;;;14.88;4.30;;;8.00;99.90;;;;;;5039053;28;20119;-70
2022/11/24 02:05:44;;;;;;;16.52;4.80;;;8.00;99.90;;;;;;5074186;28;20123;-69
2022/11/24 02:08:18;;;;;;;17.87;4.07;;;8.00;99.90;;;;;;5073907;28;20086;-70
2022/11/24 02:10:45;;;;;;;17.15;4.47;;;8.00;99.90;;;;;;5057125;28;20484;-70
2022/11/24 02:13:11;;;;;;;17.55;3.95;;;8.00;99.90;;;;;;5050938;28;20099;-70
2022/11/24 02:15:36;;;;;;;13.02;3.95;;;8.00;99.90;;;;;;5053406;28;20082;-70
2022/11/24 02:18:02;;;;;;;14.13;3.75;;;8.00;99.90;;;;;;5053603;28;20041;-69
2022/11/24 02:20:28;;;;;;;14.10;3.85;;;8.00;99.90;;;;;;5037225;28;20566;-70
2022/11/24 02:23:20;;;;;;;17.75;4.32;;;7.90;99.90;;;;;;5037651;28;20545;-70
2022/11/24 02:25:45;;;;;;;12.98;3.90;;;7.90;99.90;;;;;;5073450;28;20085;-70
2022/11/24 02:28:15;;;;;;;17.08;3.33;;;7.90;99.90;;;;;;5053514;28;20049;-70
2022/11/24 02:30:41;;;;;;;15.82;4.03;;;7.90;99.90;;;;;;5054424;28;20520;-70
2022/11/24 02:33:06;;;;;;;17.92;4.13;;;7.80;99.90;;;;;;5039154;28;20037;-70
2022/11/24 02:35:32;;;;;;;14.80;3.97;;;7.90;99.90;;;;;;5073283;28;20048;-70
2022/11/24 02:37:58;;;;;;;16.58;3.50;;;7.90;99.90;;;;;;5046484;28;20044;-70
2022/11/24 02:40:26;;;;;;;17.45;4.63;;;7.90;99.90;;;;;;5053169;28;20059;-70
2022/11/24 02:43:08;;;;;;;16.40;3.55;;;7.80;99.90;;;;;;5052255;28;20068;-70
2022/11/24 02:45:33;;;;;;;19.30;3.93;;;7.80;99.90;;;;;;5036654;28;20539;-70
2022/11/24 02:47:59;;;;;;;16.55;3.30;;;7.80;99.90;;;;;;5036668;28;20083;-70
2022/11/24 02:50:25;;;;;;;16.85;4.13;;;7.80;99.90;;;;;;5052879;28;20044;-70
2022/11/24 02:52:50;;;;;;;15.02;4.60;;;7.80;99.90;;;;;;5035366;28;20036;-70
2022/11/24 02:55:16;;;;;;;13.85;3.70;;;7.80;99.90;;;;;;5054789;28;20424;-70
2022/11/24 02:57:42;;;;;;;18.38;3.83;;;7.80;99.90;;;;;;5061345;28;20048;-70
2022/11/24 03:00:08;;;;;;;15.50;3.60;;;7.80;99.90;;;;;;5034931;28;20083;-70
2022/11/24 03:02:34;;;;;;;16.95;3.70;;;7.70;99.90;;;;;;5032580;28;20049;-70
2022/11/24 03:04:59;;;;;;;15.77;3.92;;;7.70;99.90;;;;;;5032581;28;20056;-69
2022/11/24 03:07:25;;;;;;;18.17;3.80;;;7.70;99.90;;;;;;5032724;28;20047;-70
2022/11/24 03:09:51;;;;;;;16.05;3.65;;;7.70;99.90;;;;;;5051486;28;20111;-70
2022/11/24 03:12:16;;;;;;;17.40;3.58;;;7.70;99.90;;;;;;5057602;28;20045;-70
2022/11/24 03:14:42;;;;;;;14.68;4.00;;;7.70;99.90;;;;;;5052391;28;20540;-70
2022/11/24 03:17:07;;;;;;;16.00;3.90;;;7.70;99.90;;;;;;5052405;28;20094;-70
2022/11/24 03:19:33;;;;;;;16.02;3.85;;;7.60;99.90;;;;;;5067051;28;20405;-70
2022/11/24 03:21:59;;;;;;;19.33;4.22;;;7.70;99.90;;;;;;5072465;28;20044;-70
2022/11/24 03:24:24;;;;;;;16.15;4.03;;;7.70;99.90;;;;;;5055578;28;20036;-69
2022/11/24 03:26:50;;;;;;;21.15;4.57;;;7.70;99.90;;;;;;5054512;28;20041;-70
2022/11/24 03:29:16;;;;;;;15.15;3.55;;;7.80;99.90;;;;;;5052261;28;20401;-70
2022/11/24 03:31:41;;;;;;;20.00;3.88;;;7.70;99.90;;;;;;5052264;28;20036;-70
2022/11/24 03:34:07;;;;;;;16.50;3.92;;;7.80;99.90;;;;;;5045355;28;20043;-70
2022/11/24 03:36:33;;;;;;;14.93;3.83;;;7.70;99.90;;;;;;5071064;28;20041;-70
2022/11/24 03:38:58;;;;;;;14.20;3.22;;;7.80;99.90;;;;;;5072096;28;20049;-70
2022/11/24 03:41:24;;;;;;;16.50;3.28;;;7.80;99.90;;;;;;5051269;28;20059;-70
2022/11/24 03:43:50;;;;;;;16.88;3.47;;;7.90;99.90;;;;;;5051908;28;20124;-70
2022/11/24 03:46:16;;;;;;;20.95;4.72;;;8.00;99.90;;;;;;5052016;28;20548;-69
2022/11/24 03:48:42;;;;;;;13.70;3.30;;;7.90;99.90;;;;;;5042998;28;20513;-70
2022/11/24 03:51:09;;;;;;;16.55;3.53;;;7.90;99.90;;;;;;5072185;28;20051;-69
2022/11/24 03:53:34;;;;;;;13.45;2.97;;;7.90;99.90;;;;;;5046658;28;20577;-70
2022/11/24 03:56:00;;;;;;;12.27;3.55;;;7.90;99.90;;;;;;5051816;28;20119;-70
2022/11/24 03:58:26;;;;;;;15.95;3.78;;;7.90;99.90;;;;;;5051353;28;20366;-69
2022/11/24 04:00:53;;;;;;;16.65;3.30;;;7.90;99.90;;;;;;5035242;28;20041;-70
2022/11/24 04:03:19;;;;;;;15.27;3.20;;;7.90;99.90;;;;;;5034999;28;20064;-70
2022/11/24 04:05:45;;;;;;;20.25;4.10;;;7.90;99.90;;;;;;5035090;28;20044;-70
2022/11/24 04:08:11;;;;;;;16.52;3.28;;;7.90;99.90;;;;;;5051105;28;20037;-70
2022/11/24 04:10:38;;;;;;;12.60;2.70;;;7.90;99.90;;;;;;5052052;28;20060;-70
2022/11/24 04:13:09;;;;;;;12.02;3.47;;;7.90;99.90;;;;;;5054346;28;20048;-70
2022/11/24 04:15:37;;;;;;;19.27;3.13;;;7.80;99.90;;;;;;5071738;28;20040;-70
2022/11/24 04:18:03;;;;;;;10.85;2.70;;;7.80;99.90;;;;;;5053898;28;20041;-70
2022/11/24 04:20:28;;;;;;;12.60;2.55;;;7.80;99.90;;;;;;5071997;28;20035;-70
2022/11/24 04:22:54;;;;;;;14.45;2.80;;;7.80;99.90;;;;;;5055334;28;20037;-70
2022/11/24 04:25:19;;;;;;;10.77;2.50;;;7.80;99.90;;;;;;5038099;28;20041;-70
2022/11/24 04:27:50;;;;;;;14.57;3.08;;;7.80;99.90;;;;;;5038187;28;20401;-70
2022/11/24 04:30:16;;;;;;;13.13;2.97;;;7.80;99.90;;;;;;5046273;28;20041;-70
2022/11/24 04:32:42;;;;;;;11.57;2.63;;;7.80;99.90;;;;;;5038901;28;20397;-70
2022/11/24 04:35:08;;;;;;;24.42;4.30;;;7.70;99.90;;;;;;5055168;28;20098;-70
2022/11/24 04:37:33;;;;;;;14.30;3.15;;;7.70;99.90;;;;;;5055400;28;20045;-70
2022/11/24 04:39:59;;;;;;;14.35;3.17;;;7.70;99.90;;;;;;5055220;28;20044;-70
2022/11/24 04:42:25;;;;;;;11.02;2.53;;;7.70;99.90;;;;;;5055243;28;20051;-70
2022/11/24 04:44:50;;;;;;;14.25;2.92;;;7.70;99.90;;;;;;5055246;28;20375;-70
2022/11/24 04:47:20;;;;;;;15.80;3.00;;;7.60;99.90;;;;;;5071667;28;20365;-70
2022/11/24 04:49:47;;;;;;;17.17;2.85;;;7.60;99.90;;;;;;5070190;28;20037;-70
2022/11/24 04:52:14;;;;;;;14.05;2.88;;;7.60;99.90;;;;;;5055962;28;20071;-70
2022/11/24 04:54:39;;;;;;;14.05;2.58;;;7.60;99.90;;;;;;5057275;28;20537;-70
2022/11/24 04:57:05;;;;;;;11.85;2.80;;;7.60;99.90;;;;;;5043030;28;20044;-70
2022/11/24 04:59:30;;;;;;;12.75;2.35;;;7.60;99.90;;;;;;5059988;28;20048;-70
2022/11/24 05:01:56;;;;;;;15.40;2.97;;;7.60;99.90;;;;;;5037263;28;20501;-70
2022/11/24 05:04:22;;;;;;;12.98;2.38;;;7.60;99.90;;;;;;5038193;28;20501;-70
2022/11/24 05:06:47;;;;;;;14.70;3.22;;;7.60;99.90;;;;;;5062424;28;20047;-70
2022/11/24 05:09:14;;;;;;;13.07;2.70;;;7.60;99.90;;;;;;5070274;28;20496;-69
2022/11/24 05:11:40;;;;;;;12.73;2.90;;;7.60;99.90;;;;;;5057910;28;20120;-70
2022/11/24 05:14:06;;;;;;;11.60;2.30;;;7.60;99.90;;;;;;5057196;28;20040;-70
2022/11/24 05:16:32;;;;;;;11.60;2.88;;;7.50;99.90;;;;;;5047339;28;20039;-70
2022/11/24 05:18:57;;;;;;;14.30;3.20;;;7.50;99.90;;;;;;5064087;28;20051;-70
2022/11/24 05:21:23;;;;;;;13.13;2.53;;;7.50;99.90;;;;;;5056504;28;20396;-69
2022/11/24 05:23:48;;;;;;;15.75;3.38;;;7.50;99.90;;;;;;5054384;28;20041;-70
2022/11/24 05:26:14;;;;;;;13.07;2.40;;;7.50;99.90;;;;;;5054758;28;20044;-70
2022/11/24 05:28:40;;;;;;;12.50;2.72;;;7.60;99.90;;;;;;5037812;28;20036;-70
2022/11/24 05:31:05;;;;;;;11.38;2.35;;;7.60;99.90;;;;;;5037608;28;20044;-70
2022/11/24 05:33:32;;;;;;;12.45;2.47;;;7.50;99.90;;;;;;5054629;28;20136;-70
2022/11/24 05:36:02;;;;;;;15.32;2.67;;;7.50;99.90;;;;;;5053848;28;20049;-70
2022/11/24 05:38:29;;;;;;;11.45;2.05;;;7.60;99.90;;;;;;5037703;28;20032;-69
2022/11/24 05:40:58;;;;;;;17.10;2.85;;;7.60;99.90;;;;;;5053851;28;20056;-70
2022/11/24 05:43:24;;;;;;;14.90;2.78;;;7.60;99.90;;;;;;5036129;28;20029;-70
2022/11/24 05:45:49;;;;;;;14.55;2.58;;;7.60;99.90;;;;;;5041234;28;20045;-70
2022/11/24 05:48:15;;;;;;;18.58;3.72;;;7.50;99.90;;;;;;5052398;28;20115;-70
2022/11/24 05:50:41;;;;;;;13.27;3.30;;;7.50;99.90;;;;;;5055995;28;20037;-70
2022/11/24 05:53:11;;;;;;;13.10;2.47;;;7.50;99.90;;;;;;5040148;28;20047;-70
2022/11/24 05:55:39;;;;;;;14.80;2.80;;;7.40;99.90;;;;;;5034040;28;20041;-70
2022/11/24 05:58:07;;;;;;;19.83;2.90;;;7.40;99.90;;;;;;5024749;28;20049;-70
2022/11/24 06:00:34;;;;;;;14.32;3.13;;;7.40;99.90;;;;;;5053871;28;20045;-70
2022/11/24 06:03:00;;;;;;;11.27;2.50;;;7.30;99.90;;;;;;5036120;28;20060;-70
2022/11/24 06:05:27;;;;;;;15.88;2.70;;;7.30;99.90;;;;;;5036761;28;20060;-70
2022/11/24 06:07:53;;;;;;;13.13;2.65;;;7.30;99.90;;;;;;5053770;28;20037;-70
2022/11/24 06:10:20;;;;;;;17.17;3.20;;;7.30;99.90;;;;;;5045684;28;20064;-70
2022/11/24 06:12:46;;;;;;;13.50;2.40;;;7.30;99.90;;;;;;5053605;28;20505;-70
2022/11/24 06:15:12;;;;;;;13.27;2.45;;;7.30;99.90;;;;;;5072730;28;20044;-70
2022/11/24 06:17:38;;;;;;;15.30;2.95;;;7.30;99.90;;;;;;5047506;28;20041;-70
2022/11/24 06:20:05;;;;;;;16.98;3.30;;;7.20;99.90;;;;;;5059637;28;20409;-70
2022/11/24 06:22:31;;;;;;;11.98;3.03;;;7.20;99.90;;;;;;5061064;28;20052;-70
2022/11/24 06:24:57;;;;;;;11.77;2.45;;;7.20;99.90;;;;;;5052677;28;20425;-70
2022/11/24 06:27:23;;;;;;;15.43;2.95;;;7.20;99.90;;;;;;5036713;28;20037;-70
2022/11/24 06:29:49;;;;;;;10.48;2.25;;;7.20;99.90;;;;;;5050532;28;20066;-70
2022/11/24 06:32:14;;;;;;;9.02;2.33;;;7.20;99.90;;;;;;5060790;28;20036;-70
2022/11/24 06:34:40;;;;;;;14.27;2.30;;;7.20;99.90;;;;;;5062757;28;20044;-70
2022/11/24 06:37:06;;;;;;;13.23;2.80;;;7.20;99.90;;;;;;5048207;28;20051;-70
2022/11/24 06:39:31;;;;;;;15.02;2.83;;;7.10;99.90;;;;;;5049354;28;20058;-70
2022/11/24 06:41:57;;;;;;;12.80;2.50;;;7.20;99.90;;;;;;5036391;28;20052;-70
2022/11/24 06:44:23;;;;;;;11.93;2.30;;;7.10;99.90;;;;;;5036274;28;20484;-70
2022/11/24 06:46:48;;;;;;;12.25;2.38;;;7.10;99.90;;;;;;5055367;28;20040;-70
2022/11/24 06:49:14;;;;;;;11.35;2.88;;;7.10;99.90;;;;;;5071874;28;20040;-70
2022/11/24 06:51:40;;;;;;;14.05;2.85;;;7.10;99.90;;;;;;5059930;28;20039;-70
2022/11/24 06:54:07;;;;;;;11.38;2.58;;;7.20;99.90;;;;;;5035477;28;20040;-70
2022/11/24 06:56:33;;;;;;;12.90;2.50;;;7.20;99.90;;;;;;5052459;28;20048;-70
2022/11/24 06:58:59;;;;;;;13.10;2.65;;;7.20;99.90;;;;;;5031344;28;20049;-70
2022/11/24 07:01:27;;;;;;;13.50;3.00;;;7.20;99.90;;;;;;5041827;28;20036;-70
2022/11/24 07:03:53;;;;;;;12.77;2.90;;;7.20;99.90;;;;;;5064743;28;20116;-70
2022/11/24 07:06:20;;;;;;;12.55;3.58;;;7.20;99.90;;;;;;5061156;28;20405;-69
2022/11/24 07:08:46;;;;;;;11.95;2.50;;;7.20;99.90;;;;;;5064017;28;20039;-69
2022/11/24 07:11:17;;;;;;;14.25;2.97;;;7.20;99.90;;;;;;5035266;28;20044;-70
2022/11/24 07:13:44;;;;;;;15.25;2.85;;;7.20;99.90;;;;;;5040221;28;20094;-69
2022/11/24 07:16:16;;;;;;;14.82;3.28;;;7.30;99.90;;;;;;5060627;28;20044;-69
2022/11/24 07:18:44;;;;;;;12.98;2.47;;;7.30;99.90;;;;;;5036003;28;20056;-70
2022/11/24 07:21:10;;;;;;;13.27;2.70;;;7.30;99.90;;;;;;5060394;28;20095;-69
2022/11/24 07:23:35;;;;;;;16.98;2.72;;;7.30;99.90;;;;;;5061657;28;20098;-70
2022/11/24 07:26:03;;;;;;;17.15;2.78;;;7.30;99.90;;;;;;5061802;28;20037;-70
2022/11/24 07:28:29;;;;;;;13.23;2.75;;;7.30;99.90;;;;;;5051235;28;20136;-69
2022/11/24 07:30:55;;;;;;;13.73;3.22;;;7.30;99.90;;;;;;5048663;28;20085;-70
2022/11/24 07:33:23;;;;;;;12.65;2.78;;;7.30;99.90;;;;;;5024836;28;20044;-69
2022/11/24 07:35:50;;;;;;;11.25;2.90;;;7.30;99.90;;;;;;5058119;28;20118;-70
2022/11/24 07:38:16;;;;;;;13.18;3.05;;;7.30;99.90;;;;;;5034666;28;20558;-70
2022/11/24 07:40:41;;;;;;;14.65;3.00;;;7.30;99.90;;;;;;5045253;28;20028;-69
2022/11/24 07:43:07;;;;;;;13.85;3.88;;;7.30;99.90;;;;;;5017089;28;20083;-69
2022/11/24 07:45:32;;;;;;;12.70;2.70;;;7.30;99.90;;;;;;5034175;28;20477;-70
2022/11/24 07:47:58;;;;;;;13.40;3.03;;;7.30;99.90;;;;;;5062405;28;20068;-69
2022/11/24 07:50:24;;;;;;;13.55;3.25;;;7.30;99.90;;;;;;5044716;28;20033;-69
2022/11/24 07:52:49;;;;;;;16.58;3.33;;;7.30;99.90;;;;;;5052121;28;20111;-69
2022/11/24 07:55:15;;;;;;;8.90;2.35;;;7.30;99.90;;;;;;5043021;28;20037;-69
2022/11/24 07:57:40;;;;;;;15.18;3.20;;;7.30;99.90;;;;;;5061137;28;20075;-70
2022/11/24 08:00:07;;;;;;;14.85;3.63;;;7.30;99.90;;;;;;5053574;28;20040;-69
2022/11/24 08:02:32;;;;;;;14.98;2.80;;;7.30;99.90;;;;;;5050696;28;20061;-69
2022/11/24 08:04:58;;;;;;;13.52;3.55;;;7.30;99.90;;;;;;5054945;28;20094;-70
2022/11/24 08:07:24;;;;;;;16.67;2.95;;;7.30;99.90;;;;;;5063850;28;20117;-69
2022/11/24 08:09:51;;;;;;;14.95;3.03;;;7.30;99.90;;;;;;5051708;28;20390;-70
2022/11/24 08:12:20;;;;;;;16.38;2.85;;;7.30;99.90;;;;;;5052223;28;20060;-69
2022/11/24 08:14:47;;;;;;;14.90;3.20;;;7.30;99.90;;;;;;5034922;28;20037;-69
2022/11/24 08:17:12;;;;;;;15.73;3.25;;;7.20;99.90;;;;;;5065901;28;20043;-69
2022/11/24 08:19:38;;;;;;;11.93;3.60;;;7.20;99.90;;;;;;5053656;28;20400;-69
2022/11/24 08:22:03;;;;;;;17.10;3.55;;;7.30;99.90;;;;;;5066561;28;20357;-69
2022/11/24 08:24:30;;;;;;;12.75;3.00;;;7.30;99.90;;;;;;5034492;28;20040;-69
2022/11/24 08:26:55;;;;;;;13.98;3.30;;;7.30;99.90;;;;;;5061879;28;20493;-69
2022/11/24 08:29:21;;;;;;;13.45;3.22;;;7.40;99.90;;;;;;5070053;28;20044;-70
2022/11/24 08:31:47;;;;;;;14.20;3.38;;;7.40;99.90;;;;;;5051041;28;20029;-70
2022/11/24 08:34:12;;;;;;;13.32;3.92;;;7.40;99.90;;;;;;5034659;28;20037;-69
2022/11/24 08:36:38;;;;;;;15.27;4.28;;;7.40;99.90;;;;;;5034358;28;20128;-70
2022/11/24 08:39:03;;;;;;;16.25;3.67;;;7.40;99.90;;;;;;5049512;28;20048;-69
2022/11/24 08:41:30;;;;;;;12.98;3.88;;;7.50;99.90;;;;;;5032230;28;20044;-69
2022/11/24 08:43:55;;;;;;;15.18;3.80;;;7.50;99.90;;;;;;5050760;28;20045;-69
2022/11/24 08:46:22;;;;;;;15.02;3.55;;;7.60;99.90;;;;;;5052215;28;20033;-70
2022/11/24 08:48:49;;;;;;;13.88;4.20;;;7.60;99.90;;;;;;5052159;28;20520;-70
2022/11/24 08:51:19;;;;;;;13.80;3.85;;;7.60;99.90;;;;;;5034198;28;20076;-70
2022/11/24 08:53:45;;;;;;;16.83;4.10;;;7.70;99.90;;;;;;5033628;28;20040;-69
2022/11/24 08:56:12;;;;;;;17.70;3.95;;;7.70;99.90;;;;;;5063226;28;20036;-69
2022/11/24 08:58:38;;;;;;;14.10;3.80;;;7.80;99.90;;;;;;5055724;28;20024;-69
2022/11/24 09:01:08;;;;;;;15.38;3.70;;;7.80;99.90;;;;;;5071136;28;20041;-69
2022/11/24 09:03:34;;;;;;;15.55;4.05;;;7.90;99.90;;;;;;5064676;28;20233;-69
2022/11/24 09:06:01;;;;;;;20.27;5.10;;;7.90;99.90;;;;;;5046648;28;20362;-70
2022/11/24 09:08:28;;;;;;;12.57;3.75;;;8.00;99.90;;;;;;5053243;28;20124;-69
2022/11/24 09:10:59;;;;;;;16.75;4.00;;;8.00;99.90;;;;;;5052527;28;20516;-70
2022/11/24 09:13:24;;;;;;;12.45;3.65;;;8.10;99.90;;;;;;5053869;28;20120;-70
2022/11/24 09:15:50;;;;;;;14.13;4.45;;;8.10;99.90;;;;;;5054417;28;20132;-70
2022/11/24 09:18:15;;;;;;;16.70;4.00;;;8.20;99.90;;;;;;5054145;28;20049;-69
2022/11/24 09:20:41;;;;;;;11.93;3.00;;;8.30;99.90;;;;;;5037542;28;20049;-69
2022/11/24 09:23:06;;;;;;;10.70;3.30;;;8.40;99.90;;;;;;5054613;28;20049;-69
2022/11/24 09:25:32;;;;;;;10.63;3.17;;;8.40;99.90;;;;;;5053590;28;20040;-69
2022/11/24 09:27:58;;;;;;;12.90;3.38;;;8.50;99.90;;;;;;5045311;28;20128;-69
2022/11/24 09:30:24;;;;;;;12.98;4.07;;;8.50;99.90;;;;;;5054741;28;20468;-70
2022/11/24 09:32:50;;;;;;;7.63;2.60;;;8.60;99.90;;;;;;5054797;28;20128;-70
2022/11/24 09:35:15;;;;;;;10.40;2.97;;;8.70;99.90;;;;;;5056031;28;20126;-69
2022/11/24 09:37:43;;;;;;;10.77;3.40;;;8.80;99.90;;;;;;5053247;28;20047;-69
2022/11/24 09:40:13;;;;;;;7.30;2.53;;;8.90;99.90;;;;;;5055026;28;20425;-69
2022/11/24 09:42:57;;;;;;;10.43;3.83;;;8.90;99.90;;;;;;5037181;28;20080;-70
2022/11/24 09:45:45;;;;;;;10.25;2.70;;;9.00;99.90;;;;;;5065384;28;20079;-69
2022/11/24 09:48:29;;;;;;;12.00;2.85;;;9.00;99.90;;;;;;5052578;28;20037;-70
2022/11/24 09:50:58;;;;;;;11.73;2.58;;;9.00;99.90;;;;;;5040377;28;20040;-70
2022/11/24 09:53:47;;;;;;;9.48;3.10;;;9.10;99.90;;;;;;5070161;28;20047;-69
2022/11/24 09:56:32;;;;;;;7.00;2.67;;;9.10;99.90;;;;;;5067937;28;20040;-69
2022/11/24 09:59:17;;;;;;;7.32;2.42;;;9.10;99.90;;;;;;5056667;28;20522;-70
2022/11/24 10:01:44;;;;;;;7.32;2.28;;;9.10;99.90;;;;;;5053225;28;20045;-69
2022/11/24 10:04:28;;;;;;;14.00;3.67;;;9.20;99.90;;;;;;5049464;28;20141;-69
2022/11/24 10:07:08;;;;;;;8.13;2.38;;;9.20;99.90;;;;;;5070921;28;20115;-69
2022/11/24 10:09:55;;;;;;;6.07;2.00;;;9.30;99.90;;;;;;5066303;28;20037;-69
2022/11/24 10:12:38;;;;;;;5.95;1.80;;;9.40;99.90;;;;;;5062309;28;20044;-69
2022/11/24 10:15:21;;;;;;;8.23;2.10;;;9.50;99.90;;;;;;5036835;28;20037;-69
2022/11/24 10:18:08;;;;;;;5.63;2.40;;;9.50;99.90;;;;;;5035555;28;20493;-69
2022/11/24 10:21:01;;;;;;;6.88;2.00;;;9.50;99.90;;;;;;5044722;28;20086;-70
2022/11/24 10:23:46;;;;;;;7.22;2.08;;;9.50;99.90;;;;;;5052619;28;20505;-70
2022/11/24 10:26:35;;;;;;;5.25;1.65;;;9.50;99.90;;;;;;5039448;28;20037;-70
2022/11/24 10:29:09;;;;;;;5.97;1.83;;;9.60;99.90;;;;;;5053192;28;20497;-69
2022/11/24 10:31:39;;;;;;;4.88;1.75;;;9.70;99.90;;;;;;5068773;28;20086;-69
2022/11/24 10:34:16;;;;;;;5.63;1.88;;;9.80;99.90;;;;;;5069954;28;20040;-69
2022/11/24 10:37:03;;;;;;;6.35;1.70;;;9.90;99.90;;;;;;5052450;28;20076;-70
2022/11/24 10:39:49;;;;;;;9.27;2.03;;;9.90;99.90;;;;;;5033688;28;20401;-69
2022/11/24 10:42:30;;;;;;;5.82;1.92;;;9.90;99.90;;;;;;5047836;28;20048;-69
2022/11/24 10:45:13;;;;;;;5.22;1.75;;;9.90;99.90;;;;;;5051548;28;20036;-70
2022/11/24 10:47:40;;;;;;;7.18;1.92;;;10.00;99.90;;;;;;5055081;28;20040;-69
2022/11/24 10:50:20;;;;;;;7.25;2.63;;;10.00;99.90;;;;;;5072371;28;20043;-70
2022/11/24 10:53:07;;;;;;;8.00;2.70;;;9.90;99.90;;;;;;5071284;28;20041;-70
2022/11/24 10:55:55;;;;;;;8.50;2.28;;;9.80;99.90;;;;;;5044665;28;20814;-69
2022/11/24 10:58:29;;;;;;;5.13;2.45;;;9.80;99.90;;;;;;5052028;28;20048;-70
2022/11/24 11:00:57;;;;;;;8.32;2.15;;;9.80;99.90;;;;;;5049355;28;20398;-70
2022/11/24 11:03:32;;;;;;;7.30;2.67;;;9.80;99.90;;;;;;5049862;28;20053;-70
2022/11/24 11:06:12;;;;;;;6.22;2.53;;;9.80;99.90;;;;;;5040124;28;20436;-70
2022/11/24 11:08:38;;;;;;;8.38;2.53;;;9.70;99.90;;;;;;5035498;28;20051;-70
2022/11/24 11:11:29;;;;;;;8.63;2.97;;;9.60;99.90;;;;;;5050914;28;20576;-70
2022/11/24 11:13:57;;;;;;;6.97;2.65;;;9.70;99.90;;;;;;5061480;28;20089;-69
2022/11/24 11:16:48;;;;;;;9.55;2.80;;;9.70;99.90;;;;;;5055397;28;20041;-70
2022/11/24 11:19:35;;;;;;;8.18;2.72;;;9.70;99.90;;;;;;5051833;28;20524;-70
2022/11/24 11:22:11;;;;;;;7.95;2.58;;;9.60;99.90;;;;;;5051769;28;20073;-69
2022/11/24 11:24:38;;;;;;;8.10;2.70;;;9.50;99.90;;;;;;5060219;28;20040;-70
2022/11/24 11:27:16;;;;;;;10.00;3.17;;;9.60;99.90;;;;;;5058416;28;20075;-70
2022/11/24 11:29:42;;;;;;;11.65;3.25;;;9.60;99.90;;;;;;5035997;28;20326;-70
2022/11/24 11:32:25;;;;;;;8.88;3.05;;;9.70;99.90;;;;;;5051825;28;20062;-70
2022/11/24 11:34:55;;;;;;;9.77;3.10;;;9.70;99.90;;;;;;5039363;28;20572;-70
2022/11/24 11:37:31;;;;;;;9.95;2.85;;;9.80;99.90;;;;;;5040737;28;20028;-70
2022/11/24 11:39:57;;;;;;;13.55;3.67;;;9.90;99.90;;;;;;5066787;28;20044;-70
2022/11/24 11:42:42;;;;;;;9.10;2.83;;;9.80;99.90;;;;;;5051850;28;20049;-69
2022/11/24 11:45:15;;;;;;;8.18;2.53;;;9.90;99.90;;;;;;5055211;28;20117;-69
2022/11/24 11:47:45;;;;;;;11.23;2.60;;;10.10;99.90;;;;;;5057794;28;20516;-70
2022/11/24 11:50:16;;;;;;;8.55;2.72;;;10.10;99.90;;;;;;5056928;28;20086;-70
2022/11/24 11:53:01;;;;;;;6.75;2.17;;;10.10;99.90;;;;;;5050784;28;20040;-69
2022/11/24 11:55:40;;;;;;;8.02;2.70;;;10.10;99.90;;;;;;5053060;28;20051;-69
2022/11/24 11:58:06;;;;;;;8.43;2.00;;;10.10;99.90;;;;;;5059772;28;20041;-70
2022/11/24 12:00:37;;;;;;;6.78;2.60;;;10.10;99.90;;;;;;5036627;28;20560;-70
2022/11/24 12:03:49;;;;;;;9.02;3.00;;;10.20;99.90;;;;;;5066978;28;20052;-70
2022/11/24 12:06:45;;;;;;;10.00;2.80;;;10.20;99.90;;;;;;5017721;28;20056;-70
2022/11/24 12:09:31;;;;;;;13.10;3.58;;;10.20;99.90;;;;;;5068428;28;20094;-70
2022/11/24 12:12:33;;;;;;;11.27;3.08;;;10.30;99.90;;;;;;5050979;28;20604;-70
2022/11/24 12:15:08;;;;;;;11.07;3.42;;;10.50;99.90;;;;;;5037155;28;20029;-70
2022/11/24 12:18:01;;;;;;;11.05;3.25;;;10.40;99.90;;;;;;5051598;28;20102;-70
2022/11/24 12:20:37;;;;;;;12.13;3.63;;;10.40;99.90;;;;;;5042179;28;20028;-69
2022/11/24 12:23:40;;;;;;;9.98;3.30;;;10.50;99.90;;;;;;5055398;28;20431;-69
2022/11/24 12:26:25;;;;;;;9.50;2.90;;;10.50;99.90;;;;;;5036937;28;20095;-70
2022/11/24 12:29:06;;;;;;;9.77;3.53;;;10.50;99.90;;;;;;5032686;28;20041;-70
2022/11/24 12:31:56;;;;;;;14.68;3.80;;;10.60;99.90;;;;;;5065060;28;20040;-70
2022/11/24 12:34:42;;;;;;;12.32;4.15;;;10.50;99.90;;;;;;5034197;28;20049;-70
2022/11/24 12:37:33;;;;;;;9.60;3.05;;;10.50;99.90;;;;;;5051433;28;20511;-70
2022/11/24 12:40:24;;;;;;;11.77;3.17;;;10.50;99.90;;;;;;5020153;28;20053;-70
2022/11/24 12:43:00;;;;;;;12.20;3.17;;;10.50;99.90;;;;;;5034260;28;20040;-69
2022/11/24 12:45:59;;;;;;;9.18;3.55;;;10.60;99.90;;;;;;5054319;28;20036;-70
2022/11/24 12:48:32;;;;;;;9.45;2.97;;;10.60;99.90;;;;;;5064404;28;20056;-70
2022/11/24 12:50:59;;;;;;;11.68;2.70;;;10.70;99.90;;;;;;5043896;28;20037;-70
2022/11/24 12:53:30;;;;;;;12.93;2.92;;;10.70;99.90;;;;;;5055227;28;20133;-70
2022/11/24 12:56:09;;;;;;;14.15;3.47;;;10.70;99.90;;;;;;5038639;28;20041;-70
2022/11/24 12:58:50;;;;;;;10.65;2.55;;;10.70;99.90;;;;;;5054142;28;20512;-70
2022/11/24 13:01:44;;;;;;;16.05;3.53;;;10.80;99.90;;;;;;5055044;28;20052;-70
2022/11/24 13:04:13;;;;;;;12.88;2.90;;;10.70;99.90;;;;;;5037072;28;20450;-70